DW0534 Hamburgsund SE current weather conditions

sailwx.info

Wind from 001 at 0 knots gusting 1

Air temperature 6.7° C
Dewpoint 1.4° C

Last reported at 2018-Oct-23 20:00 UTC.
Time now 2018-Oct-23 21:18 UTC

Location: N 58°32' E 011°20'.
View on Google Maps.

See reports from other nearby stations

  
Tides and Currents Weather Stations Pressure Air Temp Water Temp Dewpoint Dewpoint Depression Visibility Wind Speed Wind Dir Waves Ship Positions
date/time (UTC)wind fromknots sea level pressurealtimeterstation pressurevisibilityair tempwater tempwave heightnotes
2018-Oct-23 21:00 001 0 gusting 1 6.7
2018-Oct-23 20:45 001 0 gusting 1 6.7
2018-Oct-23 20:30 001 0 gusting 1 6.7
2018-Oct-23 20:15 001 0 gusting 1 6.7
2018-Oct-23 20:00 001 0 gusting 1 6.7
2018-Oct-23 19:45 001 0 gusting 1 6.7
2018-Oct-23 19:30 001 0 gusting 1 6.7
2018-Oct-23 19:15 001 0 gusting 1 6.7
2018-Oct-23 19:00 001 0 gusting 1 6.7
2018-Oct-23 18:45 022 1 gusting 3 6.7
2018-Oct-23 18:30 015 0 gusting 2 7.2
2018-Oct-23 18:15 016 2 gusting 3 7.2
2018-Oct-23 18:00 027 3 gusting 3 7.8
2018-Oct-23 17:45 020 3 gusting 5 8.3
2018-Oct-23 17:30 024 4 gusting 7 8.9
2018-Oct-23 17:15 019 6 gusting 9 9.4
2018-Oct-23 17:00 338 4 gusting 8 10.0
2018-Oct-23 16:45 006 2 gusting 4 10.6
2018-Oct-23 16:30 354 4 gusting 6 10.6
2018-Oct-23 16:15 323 4 gusting 6 10.6
2018-Oct-23 16:00 347 4 gusting 11 11.1
2018-Oct-23 15:45 344 2 gusting 4 11.1
2018-Oct-23 15:30 348 2 gusting 3 11.1
2018-Oct-23 15:15 337 1 gusting 2 11.7
2018-Oct-23 15:00 339 1 gusting 3 11.7
2018-Oct-23 14:45 341 1 gusting 4 11.1
2018-Oct-23 14:30 322 4 gusting 6 11.7
2018-Oct-23 14:15 335 0 gusting 2 11.7
2018-Oct-23 14:00 306 0 gusting 4 11.7
2018-Oct-23 13:45 349 0 gusting 2 11.7
2018-Oct-23 13:30 015 2 gusting 3 11.7
2018-Oct-23 13:15 299 11.7
2018-Oct-23 13:00 330 0 gusting 2 11.7
2018-Oct-23 12:45 337 1 gusting 3 11.7
2018-Oct-23 12:30 014 0 gusting 2 11.7
2018-Oct-23 12:15 007 0 gusting 1 11.7
2018-Oct-23 12:00 356 11.7
2018-Oct-23 11:45 296 1 gusting 2 11.7
2018-Oct-23 11:30 327 1 gusting 2 11.7
2018-Oct-23 11:15 338 2 gusting 6 11.7
2018-Oct-23 11:00 328 2 gusting 5 11.7
2018-Oct-23 10:45 329 2 gusting 4 11.7
2018-Oct-23 10:30 334 3 gusting 7 11.7
2018-Oct-23 10:15 352 2 gusting 3 11.7
2018-Oct-23 10:00 111 0 gusting 1 8.9
2018-Oct-23 09:45 111 0 gusting 1 8.9
2018-Oct-23 09:30 111 0 gusting 1 8.9
2018-Oct-23 09:15 111 0 gusting 1 8.9
2018-Oct-23 09:00 111 0 gusting 1 8.9
2018-Oct-23 08:45 111 0 gusting 1 8.9
2018-Oct-23 08:30 111 0 gusting 1 8.9
2018-Oct-23 08:15 111 0 gusting 1 8.9
2018-Oct-23 08:00 111 0 gusting 1 8.9
2018-Oct-23 07:45 111 0 gusting 1 8.9
2018-Oct-23 07:30 111 0 gusting 1 8.9
2018-Oct-23 07:15 111 0 gusting 1 8.9
2018-Oct-23 07:00 111 0 gusting 1 8.9
2018-Oct-23 06:45 111 0 gusting 1 8.9
2018-Oct-23 06:30 111 0 gusting 1 8.9
2018-Oct-23 06:15 111 0 gusting 1 8.9
2018-Oct-23 06:00 111 0 gusting 1 8.9
2018-Oct-23 05:45 111 0 gusting 1 8.9
2018-Oct-23 05:30 111 0 gusting 1 8.9
2018-Oct-23 05:15 111 0 gusting 1 8.9
2018-Oct-23 05:00 111 0 gusting 1 8.9
2018-Oct-23 04:45 111 0 gusting 1 8.9
2018-Oct-23 04:30 111 0 gusting 1 8.9
2018-Oct-23 04:15 111 0 gusting 1 8.9
2018-Oct-23 04:00 111 0 gusting 1 8.9
2018-Oct-23 03:45 111 0 gusting 1 8.9
2018-Oct-23 03:30 111 0 gusting 1 8.9
2018-Oct-23 03:15 111 0 gusting 1 8.9
2018-Oct-23 03:00 111 0 gusting 1 8.9
2018-Oct-23 02:45 111 0 gusting 1 8.9
2018-Oct-23 02:30 111 0 gusting 1 8.9
2018-Oct-23 02:15 111 0 gusting 1 8.9
2018-Oct-23 02:00 111 0 gusting 1 8.9
2018-Oct-23 01:45 111 0 gusting 1 8.9
2018-Oct-23 01:30 111 0 gusting 1 8.9
2018-Oct-23 01:15 111 0 gusting 1 8.9
2018-Oct-23 01:00 111 0 gusting 1 8.9
2018-Oct-23 00:45 111 0 gusting 1 8.9
2018-Oct-23 00:30 111 0 gusting 1 8.9
2018-Oct-23 00:15 111 0 gusting 1 8.9
2018-Oct-23 00:00 111 0 gusting 1 8.9
2018-Oct-22 23:45 111 0 gusting 1 8.9
2018-Oct-22 23:30 111 0 gusting 1 8.9
2018-Oct-22 23:15 111 0 gusting 1 8.9
2018-Oct-22 23:00 111 0 gusting 1 8.9
2018-Oct-22 22:45 111 0 gusting 1 8.9
2018-Oct-22 22:30 111 0 gusting 1 8.9
2018-Oct-22 22:15 111 0 gusting 1 8.9
2018-Oct-22 22:00 111 0 gusting 1 8.9
2018-Oct-22 21:45 111 0 gusting 1 8.9
2018-Oct-22 21:30 111 0 gusting 1 8.9
2018-Oct-22 21:15 111 0 gusting 1 8.9
2018-Oct-22 21:00 111 0 gusting 1 8.9
2018-Oct-22 20:45 111 0 gusting 1 8.9
2018-Oct-22 20:30 111 0 gusting 1 8.9
2018-Oct-22 20:15 111 0 gusting 1 8.9
2018-Oct-22 20:00 111 0 gusting 1 8.9
2018-Oct-22 19:45 111 0 gusting 1 8.9
2018-Oct-22 19:30 111 0 gusting 1 8.9
2018-Oct-22 19:15 111 0 gusting 1 8.9
2018-Oct-22 19:00 111 0 gusting 1 8.9
2018-Oct-22 18:45 111 0 gusting 1 8.9
2018-Oct-22 18:30 111 0 gusting 1 8.9
2018-Oct-22 18:15 111 0 gusting 1 8.9
2018-Oct-22 18:00 111 0 gusting 1 8.9
2018-Oct-22 17:45 111 0 gusting 1 8.9
2018-Oct-22 17:30 077 1 gusting 3 8.9
2018-Oct-22 17:15 222 2 gusting 6 8.9
2018-Oct-22 17:00 129 1 gusting 5 8.9
2018-Oct-22 16:45 222 1 gusting 4 8.9
2018-Oct-22 16:30 001 1 gusting 2 9.4
2018-Oct-22 16:15 226 2 gusting 7 8.9
2018-Oct-22 16:00 236 1 gusting 4 8.9
2018-Oct-22 15:45 197 1 gusting 4 8.9
2018-Oct-22 15:30 232 5 gusting 11 8.9
2018-Oct-22 15:15 130 0 gusting 5 9.4
2018-Oct-22 15:00 130 0 gusting 3 9.4
2018-Oct-22 14:45 231 3 gusting 6 9.4
2018-Oct-22 14:30 127 0 gusting 2 9.4
2018-Oct-22 14:15 224 0 gusting 2 9.4
2018-Oct-22 14:00 203 0 gusting 1 9.4
2018-Oct-22 13:45 253 0 gusting 1 9.4
2018-Oct-22 13:30 291 1 gusting 3 9.4
2018-Oct-22 13:15 249 2 gusting 7 9.4
2018-Oct-22 13:00 301 0 gusting 3 9.4
2018-Oct-22 12:45 285 2 gusting 4 9.4
2018-Oct-22 12:30 038 0 gusting 2 9.4
2018-Oct-22 12:15 320 0 gusting 2 9.4
2018-Oct-22 12:00 002 1 gusting 3 9.4
2018-Oct-22 11:45 245 2 gusting 7 9.4
2018-Oct-22 11:30 262 0 gusting 6 9.4
2018-Oct-22 11:15 240 2 gusting 6 9.4
2018-Oct-22 11:00 255 2 gusting 6 9.4
2018-Oct-22 10:45 200 1 gusting 8 9.4
2018-Oct-22 10:15 238 1 gusting 3 9.4
2018-Oct-22 10:00 008 0 gusting 2 8.9
2018-Oct-22 09:45 351 0 gusting 1 8.9
2018-Oct-22 09:30 027 2 gusting 3 8.9
2018-Oct-22 09:15 049 1 gusting 3 8.9
2018-Oct-22 09:00 247 0 gusting 8 8.9
2018-Oct-22 08:45 017 0 gusting 1 8.3
2018-Oct-22 08:30 289 0 gusting 1 8.3
2018-Oct-22 08:15 003 0 gusting 2 8.3
2018-Oct-22 08:00 350 0 gusting 3 8.3
2018-Oct-22 07:45 059 0 gusting 3 8.3
2018-Oct-22 07:30 285 2 gusting 5 7.8
2018-Oct-22 07:15 314 7.8
2018-Oct-22 07:00 024 1 gusting 2 7.8
2018-Oct-22 06:45 074 1 gusting 3 7.8
2018-Oct-22 06:30 7.8
2018-Oct-22 06:15 039 0 gusting 1 7.8
2018-Oct-22 06:00 5.0
2018-Oct-22 05:45 5.0
2018-Oct-22 05:30 5.0
2018-Oct-22 05:15 5.0
2018-Oct-22 05:00 5.0
2018-Oct-22 04:45 5.0
2018-Oct-22 04:30 5.0
2018-Oct-22 04:15 5.0
2018-Oct-22 04:00 5.0
2018-Oct-22 03:45 5.0
2018-Oct-22 03:30 5.0
2018-Oct-22 03:00 5.0
2018-Oct-22 02:45 5.0
2018-Oct-22 02:30 5.0
2018-Oct-22 02:15 5.0
2018-Oct-22 02:00 5.0
2018-Oct-22 01:45 5.0
2018-Oct-22 01:30 5.0
2018-Oct-22 01:15 5.0
2018-Oct-22 01:00 5.0
2018-Oct-22 00:45 5.0
2018-Oct-22 00:30 5.0
2018-Oct-22 00:15 5.0
2018-Oct-22 00:00 5.0
2018-Oct-21 23:45 5.0
2018-Oct-21 23:30 5.0
2018-Oct-21 23:15 5.0
2018-Oct-21 23:00 5.0
2018-Oct-21 22:45 5.0
2018-Oct-21 22:30 5.0
2018-Oct-21 22:15 5.0
2018-Oct-21 22:00 5.0
2018-Oct-21 21:45 5.0
2018-Oct-21 21:30 5.0
2018-Oct-21 21:15 5.0
2018-Oct-21 21:00 5.0